createdAt,value
2022-08-04T00:00:14.731Z,99.90
2022-08-04T00:01:11.787Z,99.90
2022-08-04T00:02:12.059Z,99.90
2022-08-04T00:03:08.615Z,99.90
2022-08-04T00:04:02.918Z,99.90
2022-08-04T00:05:05.361Z,99.90
2022-08-04T00:05:54.294Z,99.90
2022-08-04T00:06:50.730Z,99.90
2022-08-04T00:07:45.352Z,99.90
2022-08-04T00:08:35.139Z,99.90
2022-08-04T00:09:26.500Z,99.90
2022-08-04T00:10:09.241Z,99.90
2022-08-04T00:10:54.990Z,99.90
2022-08-04T00:11:39.195Z,99.90
2022-08-04T00:12:28.115Z,99.90
2022-08-04T00:13:14.537Z,99.90
2022-08-04T00:14:05.261Z,99.90
2022-08-04T00:14:50.058Z,99.90
2022-08-04T00:15:33.562Z,99.90
2022-08-04T00:16:15.498Z,99.90
2022-08-04T00:16:57.812Z,99.90
2022-08-04T00:17:41.555Z,99.90
2022-08-04T00:18:54.306Z,99.90
2022-08-04T00:19:44.291Z,99.90
2022-08-04T00:20:30.637Z,99.90
2022-08-04T00:21:15.299Z,99.90
2022-08-04T00:22:04.043Z,99.90
2022-08-04T00:22:47.738Z,99.90
2022-08-04T00:24:11.997Z,99.90
2022-08-04T00:24:35.438Z,99.90
2022-08-04T00:25:17.126Z,99.90
2022-08-04T00:26:00.076Z,99.90
2022-08-04T00:26:41.862Z,99.90
2022-08-04T00:27:23.827Z,99.90
2022-08-04T00:28:06.165Z,99.90
2022-08-04T00:28:48.631Z,99.90
2022-08-04T00:29:31.431Z,99.90
2022-08-04T00:30:13.166Z,99.90
2022-08-04T00:30:55.501Z,99.90
2022-08-04T00:31:56.070Z,99.90
2022-08-04T00:32:41.783Z,99.90
2022-08-04T00:33:23.497Z,99.90
2022-08-04T00:34:05.815Z,99.90
2022-08-04T00:34:48.606Z,99.90
2022-08-04T00:35:35.198Z,99.90
2022-08-04T00:36:18.078Z,99.90
2022-08-04T00:36:59.920Z,99.90
2022-08-04T00:37:45.462Z,99.90
2022-08-04T00:38:28.802Z,99.90
2022-08-04T00:39:16.127Z,99.90
2022-08-04T00:39:58.516Z,99.90
2022-08-04T00:41:18.688Z,99.90
2022-08-04T00:42:27.261Z,99.90
2022-08-04T00:43:19.504Z,99.90
2022-08-04T00:44:27.255Z,99.90
2022-08-04T00:45:24.197Z,99.90
2022-08-04T00:46:17.472Z,99.90
2022-08-04T00:47:14.837Z,99.90
2022-08-04T00:48:07.941Z,99.90
2022-08-04T00:49:24.203Z,99.90
2022-08-04T00:50:10.920Z,99.90
2022-08-04T00:51:18.772Z,99.90
2022-08-04T00:52:31.806Z,99.90
2022-08-04T00:53:54.397Z,99.90
2022-08-04T00:54:54.585Z,99.90
2022-08-04T00:55:57.534Z,99.90
2022-08-04T00:57:33.725Z,99.90
2022-08-04T00:58:29.488Z,99.90
2022-08-04T00:59:17.874Z,99.90
2022-08-04T01:00:10.433Z,99.90
2022-08-04T01:01:00.318Z,99.90
2022-08-04T01:01:52.674Z,99.90
2022-08-04T01:02:42.525Z,99.90
2022-08-04T01:03:49.702Z,99.90
2022-08-04T01:05:02.475Z,99.90
2022-08-04T01:05:57.267Z,99.90
2022-08-04T01:07:10.976Z,99.90
2022-08-04T01:08:06.790Z,99.90
2022-08-04T01:09:21.585Z,99.90
2022-08-04T01:10:03.660Z,99.90
2022-08-04T01:10:58.918Z,99.90
2022-08-04T01:12:02.391Z,99.90
2022-08-04T01:13:07.799Z,99.90
2022-08-04T01:14:09.931Z,99.90
2022-08-04T01:14:55.890Z,99.90
2022-08-04T01:16:01.035Z,99.90
2022-08-04T01:16:52.617Z,99.90
2022-08-04T01:17:45.203Z,99.90
2022-08-04T01:19:02.290Z,99.90
2022-08-04T01:19:55.152Z,99.90
2022-08-04T01:21:03.363Z,99.90
2022-08-04T01:22:29.258Z,99.90
2022-08-04T01:23:31.907Z,99.90
2022-08-04T01:24:39.332Z,99.90
2022-08-04T01:25:49.110Z,99.90
2022-08-04T01:26:57.420Z,99.90
2022-08-04T01:27:50.246Z,99.90
2022-08-04T01:28:43.048Z,99.90
2022-08-04T01:29:32.972Z,99.90
2022-08-04T01:30:27.526Z,99.90
2022-08-04T01:31:29.442Z,99.90
2022-08-04T01:32:14.222Z,99.90
2022-08-04T01:33:05.257Z,99.90
2022-08-04T01:33:58.526Z,99.90
2022-08-04T01:34:50.262Z,99.90
2022-08-04T01:35:52.202Z,99.90
2022-08-04T01:36:37.963Z,99.90
2022-08-04T01:37:34.281Z,99.90
2022-08-04T01:38:28.258Z,99.90
2022-08-04T01:39:39.080Z,99.90
2022-08-04T01:40:21.776Z,99.90
2022-08-04T01:41:06.502Z,99.90
2022-08-04T01:41:57.774Z,99.90
2022-08-04T01:42:42.439Z,99.90
2022-08-04T01:43:27.046Z,99.90
2022-08-04T01:44:11.675Z,99.90
2022-08-04T01:44:55.606Z,99.90
2022-08-04T01:45:37.763Z,99.90
2022-08-04T01:46:20.586Z,99.90
2022-08-04T01:47:02.611Z,99.90
2022-08-04T01:47:50.583Z,99.90
2022-08-04T01:48:34.745Z,99.90
2022-08-04T01:49:19.251Z,99.90
2022-08-04T01:50:06.775Z,99.90
2022-08-04T01:50:53.002Z,99.90
2022-08-04T01:51:40.281Z,99.90
2022-08-04T01:52:24.438Z,99.90
2022-08-04T01:53:06.559Z,99.90
2022-08-04T01:53:48.320Z,99.90
2022-08-04T01:54:31.961Z,99.90
2022-08-04T01:55:15.438Z,99.90
2022-08-04T01:55:58.258Z,99.90
2022-08-04T01:56:42.262Z,99.90
2022-08-04T01:57:38.688Z,99.90
2022-08-04T01:58:23.466Z,99.90
2022-08-04T01:59:06.062Z,99.90
2022-08-04T01:59:49.836Z,99.90
2022-08-04T02:00:31.551Z,99.90
2022-08-04T02:01:13.869Z,99.90
2022-08-04T02:01:55.717Z,99.90
2022-08-04T02:02:37.634Z,99.90
2022-08-04T02:03:19.715Z,99.90
2022-08-04T02:04:20.547Z,99.90
2022-08-04T02:05:03.258Z,99.90
2022-08-04T02:06:03.317Z,99.90
2022-08-04T02:07:17.252Z,99.90
2022-08-04T02:08:18.566Z,99.90
2022-08-04T02:09:22.011Z,99.90
2022-08-04T02:10:21.904Z,99.90
2022-08-04T02:11:16.696Z,99.90
2022-08-04T02:12:25.005Z,99.90
2022-08-04T02:13:40.016Z,99.90
2022-08-04T02:14:41.923Z,99.90
2022-08-04T02:15:44.617Z,99.90
2022-08-04T02:16:52.699Z,99.90
2022-08-04T02:17:43.858Z,99.90
2022-08-04T02:18:33.014Z,99.90
2022-08-04T02:20:01.306Z,99.90
2022-08-04T02:20:49.163Z,99.90
2022-08-04T02:21:42.637Z,99.90
2022-08-04T02:22:28.279Z,99.90
2022-08-04T02:23:28.562Z,99.90
2022-08-04T02:24:16.187Z,99.90
2022-08-04T02:25:07.652Z,99.90
2022-08-04T02:25:57.948Z,99.90
2022-08-04T02:26:43.066Z,99.90
2022-08-04T02:27:59.893Z,99.90
2022-08-04T02:28:35.996Z,99.90
2022-08-04T02:29:32.144Z,99.90
2022-08-04T02:30:14.362Z,99.90
2022-08-04T02:31:08.301Z,99.90
2022-08-04T02:31:58.019Z,99.90
2022-08-04T02:32:43.038Z,99.90
2022-08-04T02:33:37.020Z,99.90
2022-08-04T02:34:43.433Z,99.90
2022-08-04T02:35:29.046Z,99.90
2022-08-04T02:36:27.479Z,99.90
2022-08-04T02:37:11.905Z,99.90
2022-08-04T02:38:11.538Z,99.90
2022-08-04T02:38:56.837Z,99.90
2022-08-04T02:39:48.983Z,99.90
2022-08-04T02:40:31.922Z,99.90
2022-08-04T02:41:18.127Z,99.90
2022-08-04T02:42:02.178Z,99.90
2022-08-04T02:42:45.993Z,99.90
2022-08-04T02:43:51.643Z,99.90
2022-08-04T02:44:32.440Z,99.90
2022-08-04T02:45:18.632Z,99.90
2022-08-04T02:46:00.981Z,99.90
2022-08-04T02:46:43.574Z,99.90
2022-08-04T02:48:30.697Z,99.90
2022-08-04T02:48:32.281Z,99.90
2022-08-04T02:49:14.893Z,99.90
2022-08-04T02:49:58.384Z,99.90
2022-08-04T02:50:43.409Z,99.90
2022-08-04T02:51:31.842Z,99.90
2022-08-04T02:52:14.761Z,99.90
2022-08-04T02:53:00.505Z,99.90
2022-08-04T02:53:43.986Z,99.90
2022-08-04T02:54:33.653Z,99.90
2022-08-04T02:55:18.507Z,99.90
2022-08-04T02:56:02.164Z,99.90
2022-08-04T02:56:45.987Z,99.90
2022-08-04T02:57:32.570Z,99.90
2022-08-04T02:58:17.727Z,99.90
2022-08-04T02:59:08.549Z,99.90
2022-08-04T03:00:10.915Z,99.90
2022-08-04T03:00:52.663Z,99.90
2022-08-04T03:01:34.982Z,99.90
2022-08-04T03:02:22.031Z,99.90
2022-08-04T03:03:30.341Z,99.90
2022-08-04T03:04:24.764Z,99.90
2022-08-04T03:05:18.665Z,99.90
2022-08-04T03:06:12.258Z,99.90
2022-08-04T03:07:32.460Z,99.90
2022-08-04T03:08:29.214Z,99.90
2022-08-04T03:09:35.916Z,99.90
2022-08-04T03:10:26.577Z,99.90
2022-08-04T03:11:21.898Z,99.90
2022-08-04T03:12:22.466Z,99.90
2022-08-04T03:13:36.971Z,99.90
2022-08-04T03:14:45.124Z,99.90
2022-08-04T03:15:54.528Z,99.90
2022-08-04T03:17:01.133Z,99.90
2022-08-04T03:18:01.679Z,99.90
2022-08-04T03:19:06.398Z,99.90
2022-08-04T03:20:17.823Z,99.90
2022-08-04T03:21:08.590Z,99.90
2022-08-04T03:22:14.178Z,99.90
2022-08-04T03:23:15.039Z,99.90
2022-08-04T03:24:18.283Z,99.90
2022-08-04T03:26:00.038Z,99.90
2022-08-04T03:27:00.478Z,99.90
2022-08-04T03:28:03.971Z,99.90
2022-08-04T03:29:03.601Z,99.90
2022-08-04T03:30:04.167Z,99.90
2022-08-04T03:31:07.677Z,99.90
2022-08-04T03:32:23.920Z,99.90
2022-08-04T03:33:41.758Z,99.90
2022-08-04T03:34:26.777Z,99.90
2022-08-04T03:35:36.569Z,99.90
2022-08-04T03:36:42.960Z,99.90
2022-08-04T03:37:50.468Z,99.90
2022-08-04T03:38:34.883Z,99.90
2022-08-04T03:39:53.857Z,99.90
2022-08-04T03:40:50.809Z,99.90
2022-08-04T03:42:21.272Z,99.90
2022-08-04T03:43:57.921Z,99.90
2022-08-04T03:44:44.267Z,99.90
2022-08-04T03:45:52.970Z,99.90
2022-08-04T03:47:03.099Z,99.90
2022-08-04T03:47:50.694Z,99.90
2022-08-04T03:49:24.934Z,99.90
2022-08-04T03:50:28.011Z,99.90
2022-08-04T03:51:55.031Z,99.90
2022-08-04T03:53:09.863Z,99.90
2022-08-04T03:54:16.730Z,99.90
2022-08-04T03:55:10.419Z,99.90
2022-08-04T03:56:16.809Z,99.90
2022-08-04T03:57:23.806Z,99.90
2022-08-04T03:58:33.903Z,99.90
2022-08-04T03:59:40.461Z,99.90
2022-08-04T04:00:57.806Z,99.90
2022-08-04T04:02:02.431Z,99.90
2022-08-04T04:03:08.474Z,99.90
2022-08-04T04:04:30.894Z,99.90
2022-08-04T04:05:33.023Z,99.90
2022-08-04T04:07:04.009Z,99.90
2022-08-04T04:08:18.673Z,99.90
2022-08-04T04:09:28.692Z,99.90
2022-08-04T04:10:26.849Z,99.90
2022-08-04T04:11:19.827Z,99.90
2022-08-04T04:12:15.847Z,99.90
2022-08-04T04:13:15.443Z,99.90
2022-08-04T04:14:12.030Z,99.90
2022-08-04T04:15:18.651Z,99.90
2022-08-04T04:16:18.471Z,99.90
2022-08-04T04:17:35.742Z,99.90
2022-08-04T04:18:38.836Z,99.90
2022-08-04T04:19:37.137Z,99.90
2022-08-04T04:20:36.858Z,99.90
2022-08-04T04:21:32.183Z,99.90
2022-08-04T04:22:41.116Z,99.90
2022-08-04T04:23:41.594Z,99.90
2022-08-04T04:24:52.890Z,99.90
2022-08-04T04:25:49.502Z,99.90
2022-08-04T04:27:10.176Z,99.90
2022-08-04T04:28:43.601Z,99.90
2022-08-04T04:29:46.306Z,99.90
2022-08-04T04:31:07.115Z,99.90
2022-08-04T04:31:48.818Z,99.90
2022-08-04T04:32:42.781Z,99.90
2022-08-04T04:33:49.570Z,99.90
2022-08-04T04:34:50.128Z,99.90
2022-08-04T04:35:55.087Z,99.90
2022-08-04T04:36:56.797Z,99.90
2022-08-04T04:38:03.483Z,99.90
2022-08-04T04:39:00.263Z,99.90
2022-08-04T04:40:04.338Z,99.90
2022-08-04T04:41:07.669Z,99.90
2022-08-04T04:42:25.193Z,99.90
2022-08-04T04:43:15.926Z,99.90
2022-08-04T04:44:19.350Z,99.90
2022-08-04T04:45:18.733Z,99.90
2022-08-04T04:46:18.434Z,99.90
2022-08-04T04:47:42.905Z,99.90
2022-08-04T04:49:12.605Z,99.90
2022-08-04T04:50:37.903Z,99.90
2022-08-04T04:51:29.091Z,99.90
2022-08-04T04:52:32.281Z,99.90
2022-08-04T04:53:33.212Z,99.90
2022-08-04T04:54:34.287Z,99.90
2022-08-04T04:55:43.899Z,99.90
2022-08-04T04:56:57.445Z,99.90
2022-08-04T04:57:54.153Z,99.90
2022-08-04T04:58:38.504Z,99.90
2022-08-04T04:59:26.459Z,99.90
2022-08-04T05:00:13.602Z,99.90
2022-08-04T05:01:01.177Z,99.90
2022-08-04T05:01:51.169Z,99.90
2022-08-04T05:02:58.784Z,99.90
2022-08-04T05:04:18.307Z,99.90
2022-08-04T05:05:27.634Z,99.90
2022-08-04T05:06:35.956Z,99.90
2022-08-04T05:07:35.690Z,99.90
2022-08-04T05:08:44.271Z,99.90
2022-08-04T05:09:54.948Z,99.90
2022-08-04T05:11:14.930Z,99.90
2022-08-04T05:12:59.202Z,99.90
2022-08-04T05:14:34.998Z,99.90
2022-08-04T05:14:51.827Z,99.90
2022-08-04T05:15:37.472Z,99.90
2022-08-04T05:16:32.102Z,99.90
2022-08-04T05:17:22.980Z,99.90
2022-08-04T05:18:07.999Z,99.90
2022-08-04T05:19:11.553Z,99.90
2022-08-04T05:20:14.078Z,99.90
2022-08-04T05:21:06.017Z,99.90
2022-08-04T05:21:52.837Z,99.90
2022-08-04T05:22:43.290Z,99.90
2022-08-04T05:23:30.604Z,99.90
2022-08-04T05:24:15.353Z,99.90
2022-08-04T05:25:26.304Z,99.90
2022-08-04T05:26:12.438Z,99.90
2022-08-04T05:26:57.528Z,99.90
2022-08-04T05:27:45.426Z,99.90
2022-08-04T05:28:38.177Z,99.90
2022-08-04T05:29:30.952Z,99.90
2022-08-04T05:30:14.217Z,99.90
2022-08-04T05:31:02.565Z,99.90
2022-08-04T05:31:51.025Z,99.90
2022-08-04T05:32:46.736Z,99.90
2022-08-04T05:33:39.479Z,99.90
2022-08-04T05:34:34.093Z,99.90
2022-08-04T05:35:37.702Z,99.90
2022-08-04T05:36:49.546Z,99.90
2022-08-04T05:37:34.205Z,99.90
2022-08-04T05:38:22.198Z,99.90
2022-08-04T05:39:06.068Z,99.90
2022-08-04T05:39:56.377Z,99.90
2022-08-04T05:40:39.638Z,99.90
2022-08-04T05:41:22.741Z,99.90
2022-08-04T05:42:07.362Z,99.90
2022-08-04T05:42:51.511Z,99.90
2022-08-04T05:43:33.587Z,99.90
2022-08-04T05:44:22.015Z,99.90
2022-08-04T05:45:05.102Z,99.90
2022-08-04T05:45:48.459Z,99.90
2022-08-04T05:46:31.969Z,99.90
2022-08-04T05:47:16.028Z,99.90
2022-08-04T05:47:57.778Z,99.90
2022-08-04T05:48:41.221Z,99.90
2022-08-04T05:49:28.213Z,99.90
2022-08-04T05:50:10.267Z,99.90
2022-08-04T05:50:55.514Z,99.90
2022-08-04T05:51:40.515Z,99.90
2022-08-04T05:52:23.627Z,99.90
2022-08-04T05:53:06.593Z,99.90
2022-08-04T05:53:49.727Z,99.90
2022-08-04T05:54:33.145Z,99.90
2022-08-04T05:55:48.375Z,99.90
2022-08-04T05:56:18.656Z,99.90
2022-08-04T05:57:02.922Z,99.90
2022-08-04T05:57:50.795Z,99.90
2022-08-04T05:58:35.766Z,99.90
2022-08-04T05:59:19.647Z,99.90
2022-08-04T06:00:25.160Z,99.90
2022-08-04T06:01:09.345Z,99.90
2022-08-04T06:01:55.688Z,99.90
2022-08-04T06:02:39.758Z,99.90
2022-08-04T06:03:22.646Z,99.90
2022-08-04T06:04:11.311Z,99.90
2022-08-04T06:04:53.982Z,99.90
2022-08-04T06:05:36.425Z,99.90
2022-08-04T06:06:19.799Z,99.90
2022-08-04T06:07:01.818Z,99.90
2022-08-04T06:08:12.139Z,99.90
2022-08-04T06:08:46.078Z,99.90
2022-08-04T06:09:27.992Z,99.90
2022-08-04T06:10:10.201Z,99.90
2022-08-04T06:10:55.623Z,99.90
2022-08-04T06:12:00.282Z,99.90
2022-08-04T06:12:53.212Z,99.90
2022-08-04T06:13:49.649Z,99.90
2022-08-04T06:14:43.817Z,99.90
2022-08-04T06:15:27.838Z,99.90
2022-08-04T06:16:28.610Z,99.90
2022-08-04T06:18:33.624Z,99.90
2022-08-04T06:18:35.551Z,99.90
2022-08-04T06:20:00.847Z,99.90
2022-08-04T06:20:34.852Z,99.90
2022-08-04T06:21:25.554Z,99.90
2022-08-04T06:22:11.034Z,99.90
2022-08-04T06:22:55.393Z,99.90
2022-08-04T06:23:53.807Z,99.90
2022-08-04T06:24:45.170Z,99.90
2022-08-04T06:25:32.336Z,99.90
2022-08-04T06:26:19.678Z,99.90
2022-08-04T06:27:04.774Z,99.90
2022-08-04T06:27:48.613Z,99.90
2022-08-04T06:28:30.867Z,99.90
2022-08-04T06:29:30.050Z,99.90
2022-08-04T06:30:14.559Z,99.90
2022-08-04T06:32:27.332Z,99.90
2022-08-04T06:32:33.747Z,99.90
2022-08-04T06:33:27.156Z,99.90
2022-08-04T06:34:11.457Z,99.90
2022-08-04T06:34:59.027Z,99.90
2022-08-04T06:35:41.457Z,99.90
2022-08-04T06:36:23.989Z,99.90
2022-08-04T06:37:08.442Z,99.90
2022-08-04T06:37:51.848Z,99.90
2022-08-04T06:38:37.726Z,99.90
2022-08-04T06:39:21.358Z,99.90
2022-08-04T06:40:15.469Z,99.90
2022-08-04T06:41:09.351Z,99.90
2022-08-04T06:42:17.362Z,99.90
2022-08-04T06:42:56.435Z,99.90
2022-08-04T06:43:42.793Z,99.90
2022-08-04T06:44:27.050Z,99.90
2022-08-04T06:45:10.714Z,99.90
2022-08-04T06:45:54.549Z,99.90
2022-08-04T06:46:39.955Z,99.90
2022-08-04T06:47:22.900Z,99.90
2022-08-04T06:48:06.817Z,99.90
2022-08-04T06:48:50.767Z,99.90
2022-08-04T06:49:55.100Z,99.90
2022-08-04T06:51:27.652Z,99.90
2022-08-04T06:51:48.738Z,99.90
2022-08-04T06:52:31.469Z,99.90
2022-08-04T06:53:14.932Z,99.90
2022-08-04T06:53:56.907Z,99.90
2022-08-04T06:54:38.659Z,99.90
2022-08-04T06:55:20.435Z,99.90
2022-08-04T06:56:02.453Z,99.90
2022-08-04T06:56:45.547Z,99.90
2022-08-04T06:57:29.719Z,99.90
2022-08-04T06:58:12.346Z,99.90
2022-08-04T06:58:55.237Z,99.90
2022-08-04T06:59:37.066Z,99.90
2022-08-04T07:00:19.210Z,99.90
2022-08-04T07:01:02.180Z,99.90
2022-08-04T07:01:45.973Z,99.90
2022-08-04T07:02:34.603Z,99.90
2022-08-04T07:03:17.982Z,99.90
2022-08-04T07:04:00.273Z,99.90
2022-08-04T07:04:43.906Z,99.90
2022-08-04T07:05:26.345Z,99.90
2022-08-04T07:06:14.092Z,99.90
2022-08-04T07:06:56.602Z,99.90
2022-08-04T07:07:57.844Z,99.90
2022-08-04T07:08:40.455Z,99.90
2022-08-04T07:09:22.282Z,99.90
2022-08-04T07:10:04.562Z,99.90
2022-08-04T07:10:46.905Z,99.90
2022-08-04T07:11:29.044Z,99.90
2022-08-04T07:12:21.651Z,99.90
2022-08-04T07:13:04.077Z,99.90
2022-08-04T07:13:46.780Z,99.90
2022-08-04T07:14:28.849Z,99.90
2022-08-04T07:15:11.356Z,99.90
2022-08-04T07:15:57.825Z,99.90
2022-08-04T07:16:41.750Z,99.90
2022-08-04T07:17:23.710Z,99.90
2022-08-04T07:18:10.733Z,99.90
2022-08-04T07:18:52.598Z,99.90
2022-08-04T07:19:35.947Z,99.90
2022-08-04T07:20:33.823Z,99.90
2022-08-04T07:21:22.176Z,99.90
2022-08-04T07:22:16.321Z,99.90
2022-08-04T07:23:08.360Z,99.90
2022-08-04T07:23:50.914Z,99.90
2022-08-04T07:24:34.079Z,99.90
2022-08-04T07:25:16.421Z,99.90
2022-08-04T07:26:12.330Z,99.90
2022-08-04T07:26:55.758Z,99.90
2022-08-04T07:27:48.594Z,99.90
2022-08-04T07:28:31.040Z,99.90
2022-08-04T07:29:12.862Z,99.90
2022-08-04T07:29:54.886Z,99.90
2022-08-04T07:30:37.751Z,99.90
2022-08-04T07:31:33.688Z,99.90
2022-08-04T07:32:19.952Z,99.90
2022-08-04T07:33:02.346Z,99.90
2022-08-04T07:33:45.554Z,99.90
2022-08-04T07:34:49.724Z,99.90
2022-08-04T07:36:09.145Z,99.90
2022-08-04T07:36:41.987Z,99.90
2022-08-04T07:37:39.895Z,99.90
2022-08-04T07:38:27.534Z,99.90
2022-08-04T07:39:09.790Z,99.90
2022-08-04T07:40:05.326Z,99.90
2022-08-04T07:40:47.684Z,99.90
2022-08-04T07:41:37.079Z,99.90
2022-08-04T07:42:20.519Z,99.90
2022-08-04T07:43:02.719Z,99.90
2022-08-04T07:43:44.537Z,99.90
2022-08-04T07:44:26.930Z,99.90
2022-08-04T07:45:10.775Z,99.90
2022-08-04T07:45:52.575Z,99.90
2022-08-04T07:46:35.062Z,99.90
2022-08-04T07:47:16.975Z,99.90
2022-08-04T07:48:04.945Z,99.90
2022-08-04T07:48:48.375Z,99.90
2022-08-04T07:49:54.966Z,99.90
2022-08-04T07:50:33.797Z,99.90
2022-08-04T07:51:17.071Z,99.90
2022-08-04T07:52:00.454Z,99.90
2022-08-04T07:52:42.424Z,99.90
2022-08-04T07:53:54.348Z,99.90
2022-08-04T07:54:27.652Z,99.90
2022-08-04T07:55:09.716Z,99.90
2022-08-04T07:55:52.410Z,99.90
2022-08-04T07:56:36.135Z,99.90
2022-08-04T07:57:40.205Z,99.90
2022-08-04T07:58:22.323Z,99.90
2022-08-04T07:59:04.776Z,99.90
2022-08-04T07:59:50.212Z,99.90
2022-08-04T08:00:32.972Z,99.90
2022-08-04T08:01:15.124Z,99.90
2022-08-04T08:02:00.844Z,99.90
2022-08-04T08:02:43.306Z,99.90
2022-08-04T08:03:26.683Z,99.90
2022-08-04T08:04:10.402Z,99.90
2022-08-04T08:04:52.867Z,99.90
2022-08-04T08:05:34.792Z,99.90
2022-08-04T08:06:42.619Z,99.90
2022-08-04T08:07:25.151Z,99.90
2022-08-04T08:08:06.954Z,99.90
2022-08-04T08:08:49.043Z,99.90
2022-08-04T08:09:33.447Z,99.90
2022-08-04T08:10:16.081Z,99.90
2022-08-04T08:10:58.509Z,99.90
2022-08-04T08:12:36.225Z,99.90
2022-08-04T08:12:51.239Z,99.90
2022-08-04T08:13:36.406Z,99.90
2022-08-04T08:14:19.390Z,99.90
2022-08-04T08:15:01.763Z,99.90
2022-08-04T08:15:47.223Z,99.90
2022-08-04T08:16:29.325Z,99.90
2022-08-04T08:17:11.154Z,99.90
2022-08-04T08:17:57.906Z,99.90
2022-08-04T08:18:44.483Z,99.90
2022-08-04T08:19:31.174Z,99.90
2022-08-04T08:20:13.032Z,99.90
2022-08-04T08:21:11.726Z,99.90
2022-08-04T08:21:59.174Z,99.90
2022-08-04T08:22:41.988Z,99.90
2022-08-04T08:23:24.599Z,99.90
2022-08-04T08:24:12.596Z,99.90
2022-08-04T08:24:54.864Z,99.90
2022-08-04T08:25:36.734Z,99.90
2022-08-04T08:26:18.619Z,99.90
2022-08-04T08:27:04.350Z,99.90
2022-08-04T08:27:56.141Z,99.90
2022-08-04T08:28:38.576Z,99.90
2022-08-04T08:29:20.900Z,99.90
2022-08-04T08:30:02.873Z,99.90
2022-08-04T08:30:44.623Z,99.90
2022-08-04T08:31:57.475Z,99.90
2022-08-04T08:32:28.249Z,99.90
2022-08-04T08:33:14.455Z,99.90
2022-08-04T08:33:56.681Z,99.90
2022-08-04T08:34:39.018Z,99.90
2022-08-04T08:35:25.574Z,99.90
2022-08-04T08:36:22.341Z,99.90
2022-08-04T08:37:23.436Z,99.90
2022-08-04T08:38:07.021Z,99.90
2022-08-04T08:38:51.801Z,99.90
2022-08-04T08:39:48.691Z,99.90
2022-08-04T08:40:39.227Z,99.90
2022-08-04T08:41:43.542Z,99.90
2022-08-04T08:42:57.850Z,99.90
2022-08-04T08:44:07.675Z,99.90
2022-08-04T08:45:09.197Z,99.90
2022-08-04T08:46:38.740Z,99.90
2022-08-04T08:48:00.135Z,99.90
2022-08-04T08:49:09.436Z,99.90
2022-08-04T08:50:18.039Z,99.90
2022-08-04T08:51:28.623Z,99.90
2022-08-04T08:52:55.372Z,99.90
2022-08-04T08:53:55.271Z,99.90
2022-08-04T08:54:57.909Z,99.90
2022-08-04T08:56:04.509Z,99.90
2022-08-04T08:57:14.242Z,99.90
2022-08-04T08:58:03.414Z,99.90
2022-08-04T08:59:25.776Z,99.90
2022-08-04T09:00:20.775Z,99.90
2022-08-04T09:01:36.706Z,99.90
2022-08-04T09:02:18.466Z,99.90
2022-08-04T09:03:09.121Z,99.90
2022-08-04T09:04:06.803Z,99.90
2022-08-04T09:04:57.847Z,99.90
2022-08-04T09:06:00.839Z,99.90
2022-08-04T09:07:04.155Z,99.90
2022-08-04T09:08:10.052Z,99.90
2022-08-04T09:09:15.057Z,99.90
2022-08-04T09:10:24.505Z,99.90
2022-08-04T09:11:15.091Z,99.90
2022-08-04T09:12:15.430Z,99.90
2022-08-04T09:13:13.327Z,99.90
2022-08-04T09:13:57.043Z,99.90
2022-08-04T09:14:55.760Z,99.90
2022-08-04T09:15:53.895Z,99.90
2022-08-04T09:16:54.972Z,99.90
2022-08-04T09:17:49.961Z,99.90
2022-08-04T09:18:36.562Z,99.90
2022-08-04T09:19:37.520Z,99.90
2022-08-04T09:20:40.810Z,99.90
2022-08-04T09:22:12.649Z,99.90
2022-08-04T09:23:06.132Z,99.90
2022-08-04T09:24:35.800Z,99.90
2022-08-04T09:25:25.654Z,99.90
2022-08-04T09:26:48.456Z,99.90
2022-08-04T09:27:47.506Z,99.90
2022-08-04T09:28:53.618Z,99.90
2022-08-04T09:30:03.043Z,99.90
2022-08-04T09:31:22.363Z,99.90
2022-08-04T09:32:21.348Z,99.90
2022-08-04T09:33:45.381Z,99.90
2022-08-04T09:35:03.474Z,99.90
2022-08-04T09:35:59.858Z,99.90
2022-08-04T09:37:13.006Z,99.90
2022-08-04T09:38:19.211Z,99.90
2022-08-04T09:39:29.244Z,99.90
2022-08-04T09:40:33.114Z,99.90
2022-08-04T09:41:49.075Z,99.90
2022-08-04T09:43:02.107Z,99.90
2022-08-04T09:43:58.999Z,99.90
2022-08-04T09:45:06.302Z,99.90
2022-08-04T09:46:21.318Z,99.90
2022-08-04T09:47:13.824Z,99.90
2022-08-04T09:48:02.846Z,99.90
2022-08-04T09:48:48.331Z,99.90
2022-08-04T09:49:38.503Z,99.90
2022-08-04T09:50:37.580Z,99.90
2022-08-04T09:51:57.933Z,99.90
2022-08-04T09:52:49.498Z,99.90
2022-08-04T09:54:00.444Z,99.90
2022-08-04T09:55:11.996Z,99.90
2022-08-04T09:56:03.764Z,99.90
2022-08-04T09:57:11.292Z,99.90
2022-08-04T09:57:55.978Z,99.90
2022-08-04T09:58:45.673Z,99.90
2022-08-04T09:59:36.336Z,99.90
2022-08-04T10:00:20.778Z,99.90
2022-08-04T10:01:24.835Z,99.90
2022-08-04T10:02:13.411Z,99.90
2022-08-04T10:02:58.383Z,99.90
2022-08-04T10:03:45.130Z,99.90
2022-08-04T10:04:31.043Z,99.90
2022-08-04T10:05:17.169Z,99.90
2022-08-04T10:06:11.800Z,99.90
2022-08-04T10:07:11.299Z,99.90
2022-08-04T10:08:16.439Z,99.90
2022-08-04T10:09:10.960Z,99.20
2022-08-04T10:10:01.534Z,99.00
2022-08-04T10:11:03.718Z,99.50
2022-08-04T10:12:12.815Z,98.30
2022-08-04T10:13:12.358Z,98.00
2022-08-04T10:14:23.180Z,97.90
2022-08-04T10:15:16.577Z,98.00
2022-08-04T10:16:01.211Z,97.60
2022-08-04T10:17:02.905Z,97.40
2022-08-04T10:17:54.215Z,97.50
2022-08-04T10:19:32.439Z,97.40
2022-08-04T10:20:45.969Z,97.10
2022-08-04T10:21:35.966Z,96.70
2022-08-04T10:22:50.036Z,97.00
2022-08-04T10:23:55.866Z,97.40
2022-08-04T10:24:47.410Z,97.50
2022-08-04T10:26:07.779Z,96.90
2022-08-04T10:27:25.718Z,96.50
2022-08-04T10:28:13.299Z,98.10
2022-08-04T10:29:10.939Z,98.20
2022-08-04T10:29:58.457Z,97.50
2022-08-04T10:30:47.547Z,95.60
2022-08-04T10:31:34.634Z,95.10
2022-08-04T10:32:30.535Z,94.60
2022-08-04T10:33:29.923Z,94.10
2022-08-04T10:34:17.638Z,94.00
2022-08-04T10:35:13.040Z,94.50
2022-08-04T10:36:03.122Z,95.50
2022-08-04T10:37:10.353Z,94.70
2022-08-04T10:38:13.298Z,93.90
2022-08-04T10:39:06.049Z,94.10
2022-08-04T10:40:23.769Z,94.70
2022-08-04T10:41:24.027Z,94.50
2022-08-04T10:42:17.123Z,95.80
2022-08-04T10:43:35.584Z,95.80
2022-08-04T10:44:41.895Z,95.00
2022-08-04T10:45:46.223Z,94.60
2022-08-04T10:46:34.866Z,94.80
2022-08-04T10:47:20.890Z,95.00
2022-08-04T10:48:13.069Z,94.70
2022-08-04T10:49:22.018Z,95.10
2022-08-04T10:50:06.335Z,95.50
2022-08-04T10:51:14.146Z,96.40
2022-08-04T10:52:48.074Z,95.80
2022-08-04T10:53:31.880Z,95.60
2022-08-04T10:54:29.153Z,93.40
2022-08-04T10:55:21.425Z,93.80
2022-08-04T10:56:17.802Z,93.60
2022-08-04T10:57:12.110Z,93.60
2022-08-04T10:58:01.093Z,93.80
2022-08-04T10:58:49.547Z,94.40
2022-08-04T11:00:19.697Z,95.20
2022-08-04T11:01:06.205Z,95.60
2022-08-04T11:02:01.876Z,95.50
2022-08-04T11:02:55.752Z,95.70
2022-08-04T11:03:58.644Z,95.50
2022-08-04T11:04:59.586Z,95.70
2022-08-04T11:05:54.299Z,96.20
2022-08-04T11:06:37.484Z,95.80
2022-08-04T11:07:20.936Z,96.60
2022-08-04T11:08:21.456Z,95.60
2022-08-04T11:09:05.248Z,94.90
2022-08-04T11:09:57.487Z,95.10
2022-08-04T11:11:00.774Z,95.20
2022-08-04T11:12:00.102Z,94.90
2022-08-04T11:12:45.917Z,95.00
2022-08-04T11:13:47.066Z,95.00
2022-08-04T11:14:39.864Z,95.20
2022-08-04T11:15:26.886Z,95.40
2022-08-04T11:16:17.703Z,95.80
2022-08-04T11:17:06.468Z,95.40
2022-08-04T11:18:02.130Z,95.20
2022-08-04T11:18:49.990Z,95.00
2022-08-04T11:20:03.556Z,94.20
2022-08-04T11:21:05.007Z,94.40
2022-08-04T11:21:58.637Z,94.50
2022-08-04T11:23:01.357Z,94.70
2022-08-04T11:23:48.023Z,94.80
2022-08-04T11:24:55.026Z,94.80
2022-08-04T11:25:51.967Z,94.80
2022-08-04T11:26:53.207Z,95.10
2022-08-04T11:27:52.543Z,95.00
2022-08-04T11:29:03.616Z,95.20
2022-08-04T11:30:06.109Z,95.30
2022-08-04T11:31:02.982Z,95.50
2022-08-04T11:31:51.821Z,95.70
2022-08-04T11:32:46.022Z,96.10
2022-08-04T11:33:35.521Z,96.30
2022-08-04T11:34:21.778Z,96.50
2022-08-04T11:35:07.288Z,96.80
2022-08-04T11:36:02.360Z,96.80
2022-08-04T11:37:14.391Z,96.60
2022-08-04T11:38:09.235Z,96.60
2022-08-04T11:39:20.123Z,96.80
2022-08-04T11:40:35.338Z,96.60
2022-08-04T11:41:30.667Z,96.40
2022-08-04T11:42:39.708Z,96.10
2022-08-04T11:44:01.329Z,95.80